sensor_id;sensor_type;location;lat;lon;timestamp;P1;durP1;ratioP1;P2;durP2;ratioP2
80113;SDS011;69422;45.662;18.992;2023-04-24T00:00:12;4.13;;;3.20;;
80113;SDS011;69422;45.662;18.992;2023-04-24T00:02:40;4.38;;;3.58;;
80113;SDS011;69422;45.662;18.992;2023-04-24T00:05:06;5.97;;;3.80;;
80113;SDS011;69422;45.662;18.992;2023-04-24T00:07:32;3.92;;;3.50;;
80113;SDS011;69422;45.662;18.992;2023-04-24T00:09:58;5.38;;;3.83;;
80113;SDS011;69422;45.662;18.992;2023-04-24T00:12:25;5.07;;;3.00;;
80113;SDS011;69422;45.662;18.992;2023-04-24T00:14:51;6.90;;;3.80;;
80113;SDS011;69422;45.662;18.992;2023-04-24T00:17:16;5.00;;;3.53;;
80113;SDS011;69422;45.662;18.992;2023-04-24T00:19:46;4.90;;;3.72;;
80113;SDS011;69422;45.662;18.992;2023-04-24T00:22:12;5.70;;;3.33;;
80113;SDS011;69422;45.662;18.992;2023-04-24T00:24:38;4.18;;;3.55;;
80113;SDS011;69422;45.662;18.992;2023-04-24T00:27:04;4.97;;;3.72;;
80113;SDS011;69422;45.662;18.992;2023-04-24T00:29:29;6.53;;;3.45;;
80113;SDS011;69422;45.662;18.992;2023-04-24T00:31:55;3.95;;;3.17;;
80113;SDS011;69422;45.662;18.992;2023-04-24T00:34:20;4.35;;;3.53;;
80113;SDS011;69422;45.662;18.992;2023-04-24T00:36:46;4.47;;;3.40;;
80113;SDS011;69422;45.662;18.992;2023-04-24T00:39:11;5.28;;;3.42;;
80113;SDS011;69422;45.662;18.992;2023-04-24T00:41:37;5.65;;;3.72;;
80113;SDS011;69422;45.662;18.992;2023-04-24T00:44:02;5.28;;;3.72;;
80113;SDS011;69422;45.662;18.992;2023-04-24T00:46:28;6.28;;;3.72;;
80113;SDS011;69422;45.662;18.992;2023-04-24T00:48:53;4.95;;;3.35;;
80113;SDS011;69422;45.662;18.992;2023-04-24T00:51:19;6.00;;;3.47;;
80113;SDS011;69422;45.662;18.992;2023-04-24T00:53:44;6.95;;;4.07;;
80113;SDS011;69422;45.662;18.992;2023-04-24T00:56:10;5.05;;;3.70;;
80113;SDS011;69422;45.662;18.992;2023-04-24T00:58:36;4.63;;;3.92;;
80113;SDS011;69422;45.662;18.992;2023-04-24T01:01:01;4.45;;;2.90;;
80113;SDS011;69422;45.662;18.992;2023-04-24T01:03:28;4.07;;;3.42;;
80113;SDS011;69422;45.662;18.992;2023-04-24T01:05:56;5.28;;;3.92;;
80113;SDS011;69422;45.662;18.992;2023-04-24T01:08:24;4.85;;;3.88;;
80113;SDS011;69422;45.662;18.992;2023-04-24T01:10:52;5.55;;;3.70;;
80113;SDS011;69422;45.662;18.992;2023-04-24T01:13:18;5.13;;;3.83;;
80113;SDS011;69422;45.662;18.992;2023-04-24T01:15:44;5.75;;;3.83;;
80113;SDS011;69422;45.662;18.992;2023-04-24T01:18:10;4.70;;;3.30;;
80113;SDS011;69422;45.662;18.992;2023-04-24T01:20:35;4.05;;;3.35;;
80113;SDS011;69422;45.662;18.992;2023-04-24T01:23:04;5.53;;;3.78;;
80113;SDS011;69422;45.662;18.992;2023-04-24T01:25:30;4.50;;;3.53;;
80113;SDS011;69422;45.662;18.992;2023-04-24T01:27:57;4.88;;;3.53;;
80113;SDS011;69422;45.662;18.992;2023-04-24T01:30:22;5.22;;;3.45;;
80113;SDS011;69422;45.662;18.992;2023-04-24T01:32:48;7.57;;;3.88;;
80113;SDS011;69422;45.662;18.992;2023-04-24T01:35:13;4.55;;;3.50;;
80113;SDS011;69422;45.662;18.992;2023-04-24T01:37:39;5.82;;;3.95;;
80113;SDS011;69422;45.662;18.992;2023-04-24T01:40:05;4.45;;;3.38;;
80113;SDS011;69422;45.662;18.992;2023-04-24T01:42:32;5.57;;;3.83;;
80113;SDS011;69422;45.662;18.992;2023-04-24T01:44:57;4.82;;;4.07;;
80113;SDS011;69422;45.662;18.992;2023-04-24T01:47:23;4.53;;;3.83;;
80113;SDS011;69422;45.662;18.992;2023-04-24T01:49:49;5.75;;;4.32;;
80113;SDS011;69422;45.662;18.992;2023-04-24T01:52:15;5.93;;;3.50;;
80113;SDS011;69422;45.662;18.992;2023-04-24T01:54:41;5.40;;;4.05;;
80113;SDS011;69422;45.662;18.992;2023-04-24T01:57:07;6.85;;;4.00;;
80113;SDS011;69422;45.662;18.992;2023-04-24T01:59:32;5.50;;;3.53;;
80113;SDS011;69422;45.662;18.992;2023-04-24T02:01:58;5.60;;;3.65;;
80113;SDS011;69422;45.662;18.992;2023-04-24T02:04:23;4.45;;;3.40;;
80113;SDS011;69422;45.662;18.992;2023-04-24T02:06:49;6.68;;;4.20;;
80113;SDS011;69422;45.662;18.992;2023-04-24T02:09:14;5.90;;;3.83;;
80113;SDS011;69422;45.662;18.992;2023-04-24T02:11:40;4.97;;;3.85;;
80113;SDS011;69422;45.662;18.992;2023-04-24T02:14:05;5.75;;;3.90;;
80113;SDS011;69422;45.662;18.992;2023-04-24T02:16:31;4.78;;;3.80;;
80113;SDS011;69422;45.662;18.992;2023-04-24T02:18:57;5.13;;;3.90;;
80113;SDS011;69422;45.662;18.992;2023-04-24T02:21:23;5.63;;;3.30;;
80113;SDS011;69422;45.662;18.992;2023-04-24T02:23:48;5.72;;;3.65;;
80113;SDS011;69422;45.662;18.992;2023-04-24T02:26:14;4.85;;;3.75;;
80113;SDS011;69422;45.662;18.992;2023-04-24T02:28:40;6.28;;;3.50;;
80113;SDS011;69422;45.662;18.992;2023-04-24T02:31:05;4.80;;;3.85;;
80113;SDS011;69422;45.662;18.992;2023-04-24T02:33:31;6.93;;;3.90;;
80113;SDS011;69422;45.662;18.992;2023-04-24T02:35:56;5.38;;;3.70;;
80113;SDS011;69422;45.662;18.992;2023-04-24T02:38:22;4.65;;;4.10;;
80113;SDS011;69422;45.662;18.992;2023-04-24T02:40:47;5.90;;;3.70;;
80113;SDS011;69422;45.662;18.992;2023-04-24T02:43:12;6.05;;;3.92;;
80113;SDS011;69422;45.662;18.992;2023-04-24T02:45:38;7.25;;;4.10;;
80113;SDS011;69422;45.662;18.992;2023-04-24T02:48:03;4.43;;;3.78;;
80113;SDS011;69422;45.662;18.992;2023-04-24T02:50:29;5.90;;;4.15;;
80113;SDS011;69422;45.662;18.992;2023-04-24T02:52:54;5.22;;;3.70;;
80113;SDS011;69422;45.662;18.992;2023-04-24T02:55:20;6.10;;;4.18;;
80113;SDS011;69422;45.662;18.992;2023-04-24T02:57:45;6.57;;;4.03;;
80113;SDS011;69422;45.662;18.992;2023-04-24T03:00:10;5.80;;;4.60;;
80113;SDS011;69422;45.662;18.992;2023-04-24T03:02:36;5.10;;;3.97;;
80113;SDS011;69422;45.662;18.992;2023-04-24T03:05:02;7.03;;;3.80;;
80113;SDS011;69422;45.662;18.992;2023-04-24T03:07:29;6.85;;;4.05;;
80113;SDS011;69422;45.662;18.992;2023-04-24T03:09:56;6.40;;;4.18;;
80113;SDS011;69422;45.662;18.992;2023-04-24T03:12:23;5.60;;;3.90;;
80113;SDS011;69422;45.662;18.992;2023-04-24T03:14:48;6.88;;;4.20;;
80113;SDS011;69422;45.662;18.992;2023-04-24T03:17:14;5.38;;;3.95;;
80113;SDS011;69422;45.662;18.992;2023-04-24T03:19:39;6.05;;;3.92;;
80113;SDS011;69422;45.662;18.992;2023-04-24T03:22:05;6.05;;;4.00;;
80113;SDS011;69422;45.662;18.992;2023-04-24T03:24:31;5.32;;;3.95;;
80113;SDS011;69422;45.662;18.992;2023-04-24T03:26:56;6.45;;;4.15;;
80113;SDS011;69422;45.662;18.992;2023-04-24T03:29:22;5.53;;;3.97;;
80113;SDS011;69422;45.662;18.992;2023-04-24T03:31:47;6.03;;;3.83;;
80113;SDS011;69422;45.662;18.992;2023-04-24T03:34:13;5.38;;;4.13;;
80113;SDS011;69422;45.662;18.992;2023-04-24T03:36:38;5.70;;;4.10;;
80113;SDS011;69422;45.662;18.992;2023-04-24T03:39:04;6.47;;;3.95;;
80113;SDS011;69422;45.662;18.992;2023-04-24T03:41:29;7.35;;;4.03;;
80113;SDS011;69422;45.662;18.992;2023-04-24T03:43:55;7.97;;;4.13;;
80113;SDS011;69422;45.662;18.992;2023-04-24T03:46:21;5.03;;;3.92;;
80113;SDS011;69422;45.662;18.992;2023-04-24T03:48:46;5.57;;;4.22;;
80113;SDS011;69422;45.662;18.992;2023-04-24T03:51:11;6.57;;;4.03;;
80113;SDS011;69422;45.662;18.992;2023-04-24T03:53:37;5.50;;;3.83;;
80113;SDS011;69422;45.662;18.992;2023-04-24T03:56:02;6.18;;;4.10;;
80113;SDS011;69422;45.662;18.992;2023-04-24T03:58:28;6.57;;;3.70;;
80113;SDS011;69422;45.662;18.992;2023-04-24T04:00:53;4.72;;;3.88;;
80113;SDS011;69422;45.662;18.992;2023-04-24T04:03:18;7.47;;;4.68;;
80113;SDS011;69422;45.662;18.992;2023-04-24T04:05:44;6.22;;;4.95;;
80113;SDS011;69422;45.662;18.992;2023-04-24T04:08:10;6.47;;;3.83;;
80113;SDS011;69422;45.662;18.992;2023-04-24T04:10:35;5.53;;;3.45;;
80113;SDS011;69422;45.662;18.992;2023-04-24T04:13:00;4.38;;;3.55;;
80113;SDS011;69422;45.662;18.992;2023-04-24T04:15:26;5.70;;;5.10;;
80113;SDS011;69422;45.662;18.992;2023-04-24T04:17:51;6.82;;;4.28;;
80113;SDS011;69422;45.662;18.992;2023-04-24T04:20:17;7.60;;;4.40;;
80113;SDS011;69422;45.662;18.992;2023-04-24T04:22:42;6.18;;;4.07;;
80113;SDS011;69422;45.662;18.992;2023-04-24T04:25:08;7.10;;;4.32;;
80113;SDS011;69422;45.662;18.992;2023-04-24T04:27:33;6.50;;;4.13;;
80113;SDS011;69422;45.662;18.992;2023-04-24T04:29:59;8.18;;;4.25;;
80113;SDS011;69422;45.662;18.992;2023-04-24T04:32:30;6.13;;;3.95;;
80113;SDS011;69422;45.662;18.992;2023-04-24T04:34:58;6.78;;;4.43;;
80113;SDS011;69422;45.662;18.992;2023-04-24T04:37:31;6.50;;;3.67;;
80113;SDS011;69422;45.662;18.992;2023-04-24T04:39:58;5.63;;;4.22;;
80113;SDS011;69422;45.662;18.992;2023-04-24T04:42:24;7.10;;;4.78;;
80113;SDS011;69422;45.662;18.992;2023-04-24T04:44:50;5.78;;;4.47;;
80113;SDS011;69422;45.662;18.992;2023-04-24T04:47:16;5.85;;;4.22;;
80113;SDS011;69422;45.662;18.992;2023-04-24T04:49:42;7.47;;;4.75;;
80113;SDS011;69422;45.662;18.992;2023-04-24T04:52:08;6.25;;;4.40;;
80113;SDS011;69422;45.662;18.992;2023-04-24T04:54:33;5.03;;;3.95;;
80113;SDS011;69422;45.662;18.992;2023-04-24T04:56:59;6.20;;;4.07;;
80113;SDS011;69422;45.662;18.992;2023-04-24T04:59:25;7.05;;;4.53;;
80113;SDS011;69422;45.662;18.992;2023-04-24T05:01:51;7.47;;;4.85;;
80113;SDS011;69422;45.662;18.992;2023-04-24T05:04:17;5.32;;;4.13;;
80113;SDS011;69422;45.662;18.992;2023-04-24T05:06:42;6.25;;;3.95;;
80113;SDS011;69422;45.662;18.992;2023-04-24T05:09:07;7.95;;;4.20;;
80113;SDS011;69422;45.662;18.992;2023-04-24T05:11:33;5.30;;;4.15;;
80113;SDS011;69422;45.662;18.992;2023-04-24T05:13:58;8.32;;;4.65;;
80113;SDS011;69422;45.662;18.992;2023-04-24T05:16:24;6.00;;;4.18;;
80113;SDS011;69422;45.662;18.992;2023-04-24T05:18:49;6.55;;;4.30;;
80113;SDS011;69422;45.662;18.992;2023-04-24T05:21:15;7.20;;;4.18;;
80113;SDS011;69422;45.662;18.992;2023-04-24T05:23:40;6.05;;;4.20;;
80113;SDS011;69422;45.662;18.992;2023-04-24T05:26:06;6.38;;;4.30;;
80113;SDS011;69422;45.662;18.992;2023-04-24T05:28:31;7.65;;;4.55;;
80113;SDS011;69422;45.662;18.992;2023-04-24T05:30:57;7.35;;;4.45;;
80113;SDS011;69422;45.662;18.992;2023-04-24T05:33:24;8.25;;;4.50;;
80113;SDS011;69422;45.662;18.992;2023-04-24T05:35:49;5.78;;;4.35;;
80113;SDS011;69422;45.662;18.992;2023-04-24T05:38:15;8.63;;;4.68;;
80113;SDS011;69422;45.662;18.992;2023-04-24T05:40:42;8.70;;;4.93;;
80113;SDS011;69422;45.662;18.992;2023-04-24T05:43:08;5.75;;;4.43;;
80113;SDS011;69422;45.662;18.992;2023-04-24T05:45:33;7.50;;;4.78;;
80113;SDS011;69422;45.662;18.992;2023-04-24T05:48:01;6.22;;;4.70;;
80113;SDS011;69422;45.662;18.992;2023-04-24T05:50:27;6.88;;;4.72;;
80113;SDS011;69422;45.662;18.992;2023-04-24T05:52:52;6.60;;;4.25;;
80113;SDS011;69422;45.662;18.992;2023-04-24T05:55:18;5.95;;;4.25;;
80113;SDS011;69422;45.662;18.992;2023-04-24T05:57:43;8.30;;;4.72;;
80113;SDS011;69422;45.662;18.992;2023-04-24T06:00:09;8.05;;;4.05;;
80113;SDS011;69422;45.662;18.992;2023-04-24T06:02:37;6.25;;;4.45;;
80113;SDS011;69422;45.662;18.992;2023-04-24T06:05:03;16.00;;;4.85;;
80113;SDS011;69422;45.662;18.992;2023-04-24T06:07:29;7.90;;;4.07;;
80113;SDS011;69422;45.662;18.992;2023-04-24T06:09:58;13.05;;;5.07;;
80113;SDS011;69422;45.662;18.992;2023-04-24T06:12:23;9.88;;;4.30;;
80113;SDS011;69422;45.662;18.992;2023-04-24T06:14:49;14.52;;;4.57;;
80113;SDS011;69422;45.662;18.992;2023-04-24T06:17:15;11.93;;;4.40;;
80113;SDS011;69422;45.662;18.992;2023-04-24T06:19:40;13.85;;;4.57;;
80113;SDS011;69422;45.662;18.992;2023-04-24T06:22:06;12.13;;;4.72;;
80113;SDS011;69422;45.662;18.992;2023-04-24T06:24:31;12.38;;;4.45;;
80113;SDS011;69422;45.662;18.992;2023-04-24T06:26:57;10.43;;;4.60;;
80113;SDS011;69422;45.662;18.992;2023-04-24T06:29:23;13.63;;;4.78;;
80113;SDS011;69422;45.662;18.992;2023-04-24T06:31:49;7.85;;;4.25;;
80113;SDS011;69422;45.662;18.992;2023-04-24T06:34:15;11.88;;;4.05;;
80113;SDS011;69422;45.662;18.992;2023-04-24T06:36:40;9.27;;;4.72;;
80113;SDS011;69422;45.662;18.992;2023-04-24T06:39:06;10.82;;;3.85;;
80113;SDS011;69422;45.662;18.992;2023-04-24T06:41:31;14.35;;;5.25;;
80113;SDS011;69422;45.662;18.992;2023-04-24T06:43:57;13.80;;;4.97;;
80113;SDS011;69422;45.662;18.992;2023-04-24T06:46:22;10.38;;;4.50;;
80113;SDS011;69422;45.662;18.992;2023-04-24T06:48:50;14.45;;;4.47;;
80113;SDS011;69422;45.662;18.992;2023-04-24T06:51:17;12.50;;;4.72;;
80113;SDS011;69422;45.662;18.992;2023-04-24T06:53:43;9.90;;;5.72;;
80113;SDS011;69422;45.662;18.992;2023-04-24T06:56:08;10.25;;;4.80;;
80113;SDS011;69422;45.662;18.992;2023-04-24T06:58:34;8.85;;;4.43;;
80113;SDS011;69422;45.662;18.992;2023-04-24T07:00:59;9.48;;;4.80;;
80113;SDS011;69422;45.662;18.992;2023-04-24T07:03:25;9.40;;;5.22;;
80113;SDS011;69422;45.662;18.992;2023-04-24T07:05:50;6.03;;;4.65;;
80113;SDS011;69422;45.662;18.992;2023-04-24T07:08:16;9.68;;;4.75;;
80113;SDS011;69422;45.662;18.992;2023-04-24T07:10:43;6.47;;;4.95;;
80113;SDS011;69422;45.662;18.992;2023-04-24T07:13:09;10.10;;;4.93;;
80113;SDS011;69422;45.662;18.992;2023-04-24T07:15:34;6.72;;;4.30;;
80113;SDS011;69422;45.662;18.992;2023-04-24T07:18:00;6.40;;;4.47;;
80113;SDS011;69422;45.662;18.992;2023-04-24T07:20:26;7.68;;;4.45;;
80113;SDS011;69422;45.662;18.992;2023-04-24T07:22:51;6.22;;;4.45;;
80113;SDS011;69422;45.662;18.992;2023-04-24T07:25:19;7.28;;;4.35;;
80113;SDS011;69422;45.662;18.992;2023-04-24T07:27:44;5.97;;;3.92;;
80113;SDS011;69422;45.662;18.992;2023-04-24T07:30:10;5.22;;;4.20;;
80113;SDS011;69422;45.662;18.992;2023-04-24T07:32:36;6.38;;;4.15;;
80113;SDS011;69422;45.662;18.992;2023-04-24T07:35:01;8.05;;;4.32;;
80113;SDS011;69422;45.662;18.992;2023-04-24T07:37:27;8.75;;;4.07;;
80113;SDS011;69422;45.662;18.992;2023-04-24T07:39:53;7.65;;;4.35;;
80113;SDS011;69422;45.662;18.992;2023-04-24T07:42:18;6.53;;;4.22;;
80113;SDS011;69422;45.662;18.992;2023-04-24T07:44:44;8.63;;;4.40;;
80113;SDS011;69422;45.662;18.992;2023-04-24T07:47:10;8.00;;;4.32;;
80113;SDS011;69422;45.662;18.992;2023-04-24T07:49:36;6.05;;;4.30;;
80113;SDS011;69422;45.662;18.992;2023-04-24T07:52:01;7.70;;;3.70;;
80113;SDS011;69422;45.662;18.992;2023-04-24T07:54:28;5.50;;;4.10;;
80113;SDS011;69422;45.662;18.992;2023-04-24T07:56:54;6.32;;;3.92;;
80113;SDS011;69422;45.662;18.992;2023-04-24T07:59:19;6.82;;;3.88;;
80113;SDS011;69422;45.662;18.992;2023-04-24T08:01:45;6.28;;;3.75;;
80113;SDS011;69422;45.662;18.992;2023-04-24T08:04:10;6.55;;;3.22;;
80113;SDS011;69422;45.662;18.992;2023-04-24T08:06:35;7.32;;;4.00;;
80113;SDS011;69422;45.662;18.992;2023-04-24T08:09:01;6.47;;;4.25;;
80113;SDS011;69422;45.662;18.992;2023-04-24T08:11:27;5.72;;;4.07;;
80113;SDS011;69422;45.662;18.992;2023-04-24T08:13:52;7.78;;;3.85;;
80113;SDS011;69422;45.662;18.992;2023-04-24T08:16:19;10.43;;;3.70;;
80113;SDS011;69422;45.662;18.992;2023-04-24T08:18:44;6.45;;;4.00;;
80113;SDS011;69422;45.662;18.992;2023-04-24T08:21:10;6.68;;;3.88;;
80113;SDS011;69422;45.662;18.992;2023-04-24T08:23:37;7.13;;;3.55;;
80113;SDS011;69422;45.662;18.992;2023-04-24T08:26:03;7.03;;;3.80;;
80113;SDS011;69422;45.662;18.992;2023-04-24T08:28:28;6.50;;;3.65;;
80113;SDS011;69422;45.662;18.992;2023-04-24T08:30:54;5.70;;;3.55;;
80113;SDS011;69422;45.662;18.992;2023-04-24T08:33:23;6.22;;;4.00;;
80113;SDS011;69422;45.662;18.992;2023-04-24T08:35:48;6.82;;;3.70;;
80113;SDS011;69422;45.662;18.992;2023-04-24T08:38:14;5.35;;;3.50;;
80113;SDS011;69422;45.662;18.992;2023-04-24T08:40:40;5.65;;;3.92;;
80113;SDS011;69422;45.662;18.992;2023-04-24T08:43:06;5.13;;;3.75;;
80113;SDS011;69422;45.662;18.992;2023-04-24T08:45:32;5.75;;;3.75;;
80113;SDS011;69422;45.662;18.992;2023-04-24T08:47:57;4.82;;;3.38;;
80113;SDS011;69422;45.662;18.992;2023-04-24T08:50:23;4.85;;;3.13;;
80113;SDS011;69422;45.662;18.992;2023-04-24T08:52:49;4.57;;;3.38;;
80113;SDS011;69422;45.662;18.992;2023-04-24T08:55:16;3.70;;;3.25;;
80113;SDS011;69422;45.662;18.992;2023-04-24T08:57:44;4.60;;;3.40;;
80113;SDS011;69422;45.662;18.992;2023-04-24T09:00:11;6.05;;;3.65;;
80113;SDS011;69422;45.662;18.992;2023-04-24T09:02:39;5.07;;;3.63;;
80113;SDS011;69422;45.662;18.992;2023-04-24T09:05:06;5.68;;;3.58;;
80113;SDS011;69422;45.662;18.992;2023-04-24T09:07:32;6.22;;;4.15;;
80113;SDS011;69422;45.662;18.992;2023-04-24T09:10:01;6.40;;;3.45;;
80113;SDS011;69422;45.662;18.992;2023-04-24T09:12:27;4.03;;;3.08;;
80113;SDS011;69422;45.662;18.992;2023-04-24T09:14:52;5.60;;;3.42;;
80113;SDS011;69422;45.662;18.992;2023-04-24T09:17:18;4.15;;;2.95;;
80113;SDS011;69422;45.662;18.992;2023-04-24T09:19:44;5.93;;;3.28;;
80113;SDS011;69422;45.662;18.992;2023-04-24T09:22:10;4.53;;;3.60;;
80113;SDS011;69422;45.662;18.992;2023-04-24T09:24:36;5.20;;;3.05;;
80113;SDS011;69422;45.662;18.992;2023-04-24T09:27:01;6.75;;;3.50;;
80113;SDS011;69422;45.662;18.992;2023-04-24T09:29:27;6.43;;;3.70;;
80113;SDS011;69422;45.662;18.992;2023-04-24T09:31:53;7.10;;;3.28;;
80113;SDS011;69422;45.662;18.992;2023-04-24T09:34:22;5.53;;;3.83;;
80113;SDS011;69422;45.662;18.992;2023-04-24T09:36:49;4.30;;;3.15;;
80113;SDS011;69422;45.662;18.992;2023-04-24T09:39:15;5.35;;;3.97;;
80113;SDS011;69422;45.662;18.992;2023-04-24T09:41:51;4.38;;;3.47;;
80113;SDS011;69422;45.662;18.992;2023-04-24T09:44:24;5.88;;;3.20;;
80113;SDS011;69422;45.662;18.992;2023-04-24T09:46:51;5.90;;;3.42;;
80113;SDS011;69422;45.662;18.992;2023-04-24T09:49:23;6.53;;;4.60;;
80113;SDS011;69422;45.662;18.992;2023-04-24T09:51:50;6.13;;;3.45;;
80113;SDS011;69422;45.662;18.992;2023-04-24T09:54:20;5.70;;;3.38;;
80113;SDS011;69422;45.662;18.992;2023-04-24T09:56:47;4.65;;;3.30;;
80113;SDS011;69422;45.662;18.992;2023-04-24T09:59:14;6.45;;;3.53;;
80113;SDS011;69422;45.662;18.992;2023-04-24T10:01:43;5.47;;;3.10;;
80113;SDS011;69422;45.662;18.992;2023-04-24T10:04:20;4.95;;;3.20;;
80113;SDS011;69422;45.662;18.992;2023-04-24T10:06:50;5.47;;;3.20;;
80113;SDS011;69422;45.662;18.992;2023-04-24T10:09:16;4.40;;;3.60;;
80113;SDS011;69422;45.662;18.992;2023-04-24T10:11:42;5.38;;;3.17;;
80113;SDS011;69422;45.662;18.992;2023-04-24T10:14:12;4.72;;;3.45;;
80113;SDS011;69422;45.662;18.992;2023-04-24T10:16:45;5.65;;;3.35;;
80113;SDS011;69422;45.662;18.992;2023-04-24T10:19:12;3.30;;;2.90;;
80113;SDS011;69422;45.662;18.992;2023-04-24T10:21:38;4.47;;;3.20;;
80113;SDS011;69422;45.662;18.992;2023-04-24T10:24:07;6.80;;;3.58;;
80113;SDS011;69422;45.662;18.992;2023-04-24T10:26:34;4.55;;;3.72;;
80113;SDS011;69422;45.662;18.992;2023-04-24T10:29:00;4.10;;;3.58;;
80113;SDS011;69422;45.662;18.992;2023-04-24T10:31:26;3.85;;;3.20;;
80113;SDS011;69422;45.662;18.992;2023-04-24T10:33:53;3.45;;;2.75;;
80113;SDS011;69422;45.662;18.992;2023-04-24T10:36:19;5.25;;;3.08;;
80113;SDS011;69422;45.662;18.992;2023-04-24T10:38:47;4.35;;;3.10;;
80113;SDS011;69422;45.662;18.992;2023-04-24T10:41:15;3.63;;;2.92;;
80113;SDS011;69422;45.662;18.992;2023-04-24T10:43:48;3.45;;;2.67;;
80113;SDS011;69422;45.662;18.992;2023-04-24T10:46:21;4.00;;;3.10;;
80113;SDS011;69422;45.662;18.992;2023-04-24T10:48:53;5.30;;;3.22;;
80113;SDS011;69422;45.662;18.992;2023-04-24T10:51:21;4.38;;;3.08;;
80113;SDS011;69422;45.662;18.992;2023-04-24T10:53:47;3.70;;;3.00;;
80113;SDS011;69422;45.662;18.992;2023-04-24T10:56:15;4.32;;;3.10;;
80113;SDS011;69422;45.662;18.992;2023-04-24T10:58:42;3.95;;;3.20;;
80113;SDS011;69422;45.662;18.992;2023-04-24T11:01:22;5.47;;;3.05;;
80113;SDS011;69422;45.662;18.992;2023-04-24T11:03:59;5.10;;;3.03;;
80113;SDS011;69422;45.662;18.992;2023-04-24T11:06:31;6.00;;;3.10;;
80113;SDS011;69422;45.662;18.992;2023-04-24T11:09:02;4.70;;;3.20;;
80113;SDS011;69422;45.662;18.992;2023-04-24T11:11:37;3.58;;;3.05;;
80113;SDS011;69422;45.662;18.992;2023-04-24T11:16:34;3.75;;;2.83;;
80113;SDS011;69422;45.662;18.992;2023-04-24T11:24:27;5.00;;;2.88;;
80113;SDS011;69422;45.662;18.992;2023-04-24T11:26:55;5.80;;;3.15;;
80113;SDS011;69422;45.662;18.992;2023-04-24T11:34:53;4.22;;;3.20;;
80113;SDS011;69422;45.662;18.992;2023-04-24T11:37:21;7.07;;;3.10;;
80113;SDS011;69422;45.662;18.992;2023-04-24T11:39:55;3.97;;;3.00;;
80113;SDS011;69422;45.662;18.992;2023-04-24T11:42:21;4.35;;;2.92;;
80113;SDS011;69422;45.662;18.992;2023-04-24T11:44:49;5.32;;;3.10;;
80113;SDS011;69422;45.662;18.992;2023-04-24T11:47:15;4.13;;;3.10;;
80113;SDS011;69422;45.662;18.992;2023-04-24T11:49:41;4.22;;;2.95;;
80113;SDS011;69422;45.662;18.992;2023-04-24T11:52:06;4.22;;;3.05;;
80113;SDS011;69422;45.662;18.992;2023-04-24T11:54:32;4.45;;;3.25;;
80113;SDS011;69422;45.662;18.992;2023-04-24T11:56:58;3.78;;;3.03;;
80113;SDS011;69422;45.662;18.992;2023-04-24T11:59:23;2.90;;;2.65;;
80113;SDS011;69422;45.662;18.992;2023-04-24T12:01:49;3.75;;;3.10;;
80113;SDS011;69422;45.662;18.992;2023-04-24T12:04:16;4.45;;;2.95;;
80113;SDS011;69422;45.662;18.992;2023-04-24T12:12:15;6.30;;;3.38;;
80113;SDS011;69422;45.662;18.992;2023-04-24T12:14:44;4.53;;;3.22;;
80113;SDS011;69422;45.662;18.992;2023-04-24T12:17:10;6.43;;;3.22;;
80113;SDS011;69422;45.662;18.992;2023-04-24T12:19:35;3.55;;;2.80;;
80113;SDS011;69422;45.662;18.992;2023-04-24T12:22:02;3.88;;;2.72;;
80113;SDS011;69422;45.662;18.992;2023-04-24T12:24:30;5.03;;;3.40;;
80113;SDS011;69422;45.662;18.992;2023-04-24T12:26:56;4.32;;;3.30;;
80113;SDS011;69422;45.662;18.992;2023-04-24T12:29:22;4.10;;;2.90;;
80113;SDS011;69422;45.662;18.992;2023-04-24T12:31:47;6.43;;;3.13;;
80113;SDS011;69422;45.662;18.992;2023-04-24T12:36:48;4.40;;;3.03;;
80113;SDS011;69422;45.662;18.992;2023-04-24T12:39:14;6.93;;;2.97;;
80113;SDS011;69422;45.662;18.992;2023-04-24T12:41:50;3.30;;;2.78;;
80113;SDS011;69422;45.662;18.992;2023-04-24T12:44:32;3.88;;;2.75;;
80113;SDS011;69422;45.662;18.992;2023-04-24T12:47:00;5.32;;;3.22;;
80113;SDS011;69422;45.662;18.992;2023-04-24T12:49:25;3.63;;;2.75;;
80113;SDS011;69422;45.662;18.992;2023-04-24T12:51:51;4.07;;;3.03;;
80113;SDS011;69422;45.662;18.992;2023-04-24T12:54:17;4.13;;;2.65;;
80113;SDS011;69422;45.662;18.992;2023-04-24T12:56:42;4.15;;;2.85;;
80113;SDS011;69422;45.662;18.992;2023-04-24T12:59:08;4.43;;;2.95;;
80113;SDS011;69422;45.662;18.992;2023-04-24T13:01:33;4.20;;;2.75;;
80113;SDS011;69422;45.662;18.992;2023-04-24T13:03:59;5.78;;;2.85;;
80113;SDS011;69422;45.662;18.992;2023-04-24T13:06:24;6.18;;;3.22;;
80113;SDS011;69422;45.662;18.992;2023-04-24T13:08:51;3.10;;;2.50;;
80113;SDS011;69422;45.662;18.992;2023-04-24T13:11:17;5.93;;;3.47;;
80113;SDS011;69422;45.662;18.992;2023-04-24T13:13:43;3.75;;;2.95;;
80113;SDS011;69422;45.662;18.992;2023-04-24T13:16:08;3.53;;;2.92;;
80113;SDS011;69422;45.662;18.992;2023-04-24T13:18:34;6.25;;;3.13;;
80113;SDS011;69422;45.662;18.992;2023-04-24T13:20:59;5.63;;;3.13;;
80113;SDS011;69422;45.662;18.992;2023-04-24T13:23:25;4.72;;;2.90;;
80113;SDS011;69422;45.662;18.992;2023-04-24T13:25:50;6.30;;;3.47;;
80113;SDS011;69422;45.662;18.992;2023-04-24T13:28:15;6.72;;;3.47;;
80113;SDS011;69422;45.662;18.992;2023-04-24T13:30:41;3.80;;;3.40;;
80113;SDS011;69422;45.662;18.992;2023-04-24T13:33:06;6.25;;;3.55;;
80113;SDS011;69422;45.662;18.992;2023-04-24T13:35:32;4.88;;;3.67;;
80113;SDS011;69422;45.662;18.992;2023-04-24T13:37:57;4.30;;;3.13;;
80113;SDS011;69422;45.662;18.992;2023-04-24T13:40:23;5.47;;;3.50;;
80113;SDS011;69422;45.662;18.992;2023-04-24T13:42:49;4.13;;;3.38;;
80113;SDS011;69422;45.662;18.992;2023-04-24T13:45:14;5.82;;;3.42;;
80113;SDS011;69422;45.662;18.992;2023-04-24T13:47:40;4.25;;;3.50;;
80113;SDS011;69422;45.662;18.992;2023-04-24T13:50:08;5.60;;;3.42;;
80113;SDS011;69422;45.662;18.992;2023-04-24T13:52:34;6.95;;;3.53;;
80113;SDS011;69422;45.662;18.992;2023-04-24T13:55:00;4.68;;;3.25;;
80113;SDS011;69422;45.662;18.992;2023-04-24T13:57:25;5.47;;;4.00;;
80113;SDS011;69422;45.662;18.992;2023-04-24T13:59:51;4.97;;;3.53;;
80113;SDS011;69422;45.662;18.992;2023-04-24T14:02:17;5.78;;;3.17;;
80113;SDS011;69422;45.662;18.992;2023-04-24T14:04:42;5.00;;;3.45;;
80113;SDS011;69422;45.662;18.992;2023-04-24T14:07:07;5.40;;;3.42;;
80113;SDS011;69422;45.662;18.992;2023-04-24T14:09:33;6.95;;;3.42;;
80113;SDS011;69422;45.662;18.992;2023-04-24T14:11:59;5.32;;;3.50;;
80113;SDS011;69422;45.662;18.992;2023-04-24T14:14:26;5.07;;;3.47;;
80113;SDS011;69422;45.662;18.992;2023-04-24T14:16:52;6.03;;;3.42;;
80113;SDS011;69422;45.662;18.992;2023-04-24T14:19:17;5.43;;;3.50;;
80113;SDS011;69422;45.662;18.992;2023-04-24T14:21:43;6.40;;;3.63;;
80113;SDS011;69422;45.662;18.992;2023-04-24T14:24:08;5.47;;;3.08;;
80113;SDS011;69422;45.662;18.992;2023-04-24T14:26:34;4.93;;;3.50;;
80113;SDS011;69422;45.662;18.992;2023-04-24T14:28:59;3.97;;;3.33;;
80113;SDS011;69422;45.662;18.992;2023-04-24T14:31:25;4.93;;;3.50;;
80113;SDS011;69422;45.662;18.992;2023-04-24T14:33:50;5.97;;;3.58;;
80113;SDS011;69422;45.662;18.992;2023-04-24T14:36:16;4.00;;;3.60;;
80113;SDS011;69422;45.662;18.992;2023-04-24T14:38:41;4.75;;;3.22;;
80113;SDS011;69422;45.662;18.992;2023-04-24T14:41:07;5.75;;;3.83;;
80113;SDS011;69422;45.662;18.992;2023-04-24T14:43:35;5.70;;;3.50;;
80113;SDS011;69422;45.662;18.992;2023-04-24T14:46:01;5.55;;;3.40;;
80113;SDS011;69422;45.662;18.992;2023-04-24T14:48:27;5.97;;;3.72;;